createdAt,value
2019-02-17T00:01:25.850Z,28.70
2019-02-17T00:03:59.131Z,32.60
2019-02-17T00:06:33.603Z,34.87
2019-02-17T00:09:10.201Z,32.80
2019-02-17T00:11:43.486Z,29.20
2019-02-17T00:14:16.762Z,29.07
2019-02-17T00:16:50.102Z,27.70
2019-02-17T00:19:23.386Z,27.00
2019-02-17T00:21:56.705Z,26.33
2019-02-17T00:24:30.023Z,25.47
2019-02-17T00:27:03.311Z,24.90
2019-02-17T00:29:36.614Z,30.77
2019-02-17T00:32:10.917Z,29.57
2019-02-17T00:34:45.856Z,23.30
2019-02-17T00:37:19.158Z,26.33
2019-02-17T00:39:54.070Z,27.60
2019-02-17T00:42:27.402Z,27.53
2019-02-17T00:45:00.673Z,26.73
2019-02-17T00:47:34.556Z,28.47
2019-02-17T00:50:09.507Z,24.90
2019-02-17T00:52:42.823Z,28.63
2019-02-17T00:55:16.209Z,31.23
2019-02-17T00:57:49.504Z,27.77
2019-02-17T01:00:22.798Z,33.03
2019-02-17T01:02:56.096Z,30.97
2019-02-17T01:05:30.494Z,28.53
2019-02-17T01:08:03.781Z,29.00
2019-02-17T01:10:37.540Z,26.97
2019-02-17T01:13:10.844Z,25.93
2019-02-17T01:15:44.149Z,36.57
2019-02-17T01:18:17.443Z,29.43
2019-02-17T01:20:50.759Z,26.67
2019-02-17T01:23:24.065Z,26.97
2019-02-17T01:25:57.380Z,26.90
2019-02-17T01:28:30.679Z,29.13
2019-02-17T01:31:04.063Z,33.00
2019-02-17T01:33:37.352Z,28.30
2019-02-17T01:36:10.724Z,26.93
2019-02-17T01:38:44.285Z,29.20
2019-02-17T01:41:17.609Z,26.37
2019-02-17T01:43:52.461Z,25.07
2019-02-17T01:46:25.794Z,32.40
2019-02-17T01:48:59.074Z,35.33
2019-02-17T01:51:34.039Z,41.63
2019-02-17T01:54:07.295Z,43.13
2019-02-17T01:56:40.603Z,37.93
2019-02-17T01:59:13.896Z,28.77
2019-02-17T02:01:47.777Z,31.63
2019-02-17T02:04:21.087Z,39.63
2019-02-17T02:06:54.430Z,36.60
2019-02-17T02:09:27.717Z,35.67
2019-02-17T02:12:01.030Z,38.47
2019-02-17T02:14:34.341Z,36.20
2019-02-17T02:17:07.686Z,44.63
2019-02-17T02:19:40.991Z,48.63
2019-02-17T02:22:14.309Z,36.40
2019-02-17T02:24:47.623Z,36.87
2019-02-17T02:27:20.933Z,42.27
2019-02-17T02:29:54.234Z,41.10
2019-02-17T02:32:27.555Z,37.07
2019-02-17T02:35:00.917Z,35.60
2019-02-17T02:37:34.233Z,32.07
2019-02-17T02:40:08.305Z,46.97
2019-02-17T02:42:42.966Z,38.67
2019-02-17T02:45:16.292Z,34.43
2019-02-17T02:47:49.602Z,36.80
2019-02-17T02:50:22.898Z,38.10
2019-02-17T02:52:56.195Z,36.90
2019-02-17T02:55:29.494Z,33.07
2019-02-17T02:58:02.872Z,33.40
2019-02-17T03:00:36.186Z,36.37
2019-02-17T03:03:09.493Z,37.90
2019-02-17T03:05:44.424Z,32.10
2019-02-17T03:08:17.747Z,32.87
2019-02-17T03:10:51.059Z,37.03
2019-02-17T03:13:24.356Z,39.10
2019-02-17T03:15:57.633Z,30.57
2019-02-17T03:18:30.940Z,30.93
2019-02-17T03:21:04.220Z,32.30
2019-02-17T03:23:37.538Z,30.07
2019-02-17T03:26:10.835Z,33.80
2019-02-17T03:28:44.140Z,35.43
2019-02-17T03:31:17.564Z,28.07
2019-02-17T03:33:50.834Z,29.90
2019-02-17T03:36:24.132Z,34.37
2019-02-17T03:38:57.422Z,31.57
2019-02-17T03:41:30.712Z,35.13
2019-02-17T03:44:04.107Z,31.87
2019-02-17T03:46:37.403Z,33.97
2019-02-17T03:49:10.722Z,34.27
2019-02-17T03:51:44.002Z,35.93
2019-02-17T03:54:17.327Z,33.40
2019-02-17T03:56:50.618Z,32.40
2019-02-17T03:59:23.921Z,46.53
2019-02-17T04:01:57.201Z,35.90
2019-02-17T04:04:30.538Z,34.47
2019-02-17T04:07:04.068Z,30.50
2019-02-17T04:09:37.374Z,29.97
2019-02-17T04:12:10.644Z,28.70
2019-02-17T04:14:44.345Z,32.60
2019-02-17T04:17:17.714Z,26.70
2019-02-17T04:19:50.995Z,36.50
2019-02-17T04:22:25.280Z,28.53
2019-02-17T04:24:58.583Z,30.07
2019-02-17T04:27:31.877Z,30.63
2019-02-17T04:30:06.019Z,29.43
2019-02-17T04:32:39.300Z,63.03
2019-02-17T04:35:12.604Z,32.47
2019-02-17T04:37:45.886Z,32.40
2019-02-17T04:40:19.255Z,28.87
2019-02-17T04:42:52.550Z,30.53
2019-02-17T04:45:25.884Z,28.70
2019-02-17T04:48:00.698Z,26.93
2019-02-17T04:50:33.926Z,28.50
2019-02-17T04:53:07.214Z,30.23
2019-02-17T04:55:40.521Z,33.67
2019-02-17T04:58:13.792Z,32.70
2019-02-17T05:00:47.088Z,34.83
2019-02-17T05:03:20.363Z,31.00
2019-02-17T05:05:53.667Z,31.10
2019-02-17T05:08:26.952Z,34.33
2019-02-17T05:11:00.928Z,39.40
2019-02-17T05:13:34.193Z,32.50
2019-02-17T05:16:07.504Z,34.63
2019-02-17T05:18:42.423Z,34.70
2019-02-17T05:21:15.724Z,30.67
2019-02-17T05:23:49.015Z,38.17
2019-02-17T05:26:22.309Z,37.27
2019-02-17T05:28:56.629Z,32.43
2019-02-17T05:31:31.710Z,34.73
2019-02-17T05:34:04.984Z,33.07
2019-02-17T05:36:38.288Z,33.80
2019-02-17T05:39:11.599Z,37.20
2019-02-17T05:41:44.887Z,37.20
2019-02-17T05:44:18.163Z,37.73
2019-02-17T05:46:51.467Z,31.67
2019-02-17T05:49:24.735Z,41.73
2019-02-17T05:51:59.685Z,27.97
2019-02-17T05:54:32.996Z,34.90
2019-02-17T05:57:06.313Z,34.73
2019-02-17T05:59:39.426Z,38.77
2019-02-17T06:02:12.722Z,32.43
2019-02-17T06:04:46.015Z,32.13
2019-02-17T06:07:19.306Z,28.80
2019-02-17T06:09:52.629Z,33.60
2019-02-17T06:12:25.880Z,34.77
2019-02-17T06:15:00.847Z,35.47
2019-02-17T06:17:36.227Z,41.50
2019-02-17T06:20:10.867Z,36.73
2019-02-17T06:22:45.315Z,37.13
2019-02-17T06:25:18.604Z,36.13
2019-02-17T06:27:51.895Z,31.67
2019-02-17T06:30:25.204Z,34.20
2019-02-17T06:32:59.832Z,33.00
2019-02-17T06:35:33.107Z,35.20
2019-02-17T06:38:06.405Z,31.27
2019-02-17T06:40:41.249Z,29.73
2019-02-17T06:43:15.282Z,36.50
2019-02-17T06:45:48.584Z,32.33
2019-02-17T06:48:21.864Z,34.43
2019-02-17T06:50:55.196Z,32.70
2019-02-17T06:53:28.498Z,31.73
2019-02-17T06:56:03.435Z,32.10
2019-02-17T06:58:36.721Z,32.27
2019-02-17T07:01:10.013Z,31.07
2019-02-17T07:03:44.935Z,29.43
2019-02-17T07:06:22.584Z,29.03
2019-02-17T07:08:55.857Z,30.93
2019-02-17T07:11:29.173Z,28.37
2019-02-17T07:14:02.455Z,28.67
2019-02-17T07:16:35.779Z,31.97
2019-02-17T07:19:09.066Z,29.20
2019-02-17T07:21:42.364Z,32.00
2019-02-17T07:24:15.668Z,29.33
2019-02-17T07:26:48.971Z,32.63
2019-02-17T07:29:22.255Z,30.60
2019-02-17T07:31:55.567Z,25.40
2019-02-17T07:34:28.849Z,28.40
2019-02-17T07:37:02.156Z,31.43
2019-02-17T07:39:35.271Z,27.53
2019-02-17T07:42:09.636Z,25.53
2019-02-17T07:44:43.040Z,29.70
2019-02-17T07:47:18.135Z,27.20
2019-02-17T07:49:51.510Z,30.77
2019-02-17T07:52:24.806Z,32.70
2019-02-17T07:54:58.095Z,27.33
2019-02-17T07:57:31.399Z,25.67
2019-02-17T08:00:07.824Z,27.93
2019-02-17T08:02:41.712Z,31.37
2019-02-17T08:05:15.000Z,29.50
2019-02-17T08:07:48.300Z,28.97
2019-02-17T08:10:21.579Z,26.87
2019-02-17T08:12:56.219Z,26.73
2019-02-17T08:15:29.511Z,24.07
2019-02-17T08:18:02.803Z,26.77
2019-02-17T08:20:36.644Z,25.20
2019-02-17T08:23:10.143Z,24.17
2019-02-17T08:25:43.439Z,27.10
2019-02-17T08:28:16.748Z,28.07
2019-02-17T08:30:50.029Z,24.87
2019-02-17T08:33:23.384Z,23.43
2019-02-17T08:35:56.669Z,25.17
2019-02-17T08:38:29.996Z,25.97
2019-02-17T08:41:04.654Z,23.37
2019-02-17T08:43:39.068Z,25.03
2019-02-17T08:46:12.350Z,22.60
2019-02-17T08:48:45.660Z,24.50
2019-02-17T08:51:18.954Z,23.30
2019-02-17T08:53:52.361Z,25.00
2019-02-17T08:56:25.659Z,24.87
2019-02-17T08:58:59.029Z,22.50
2019-02-17T09:01:32.293Z,25.63
2019-02-17T09:04:05.615Z,23.67
2019-02-17T09:06:38.959Z,23.77
2019-02-17T09:09:13.805Z,27.63
2019-02-17T09:11:47.095Z,28.13
2019-02-17T09:14:20.412Z,27.37
2019-02-17T09:16:53.704Z,23.37
2019-02-17T09:19:27.018Z,20.83
2019-02-17T09:22:00.301Z,22.93
2019-02-17T09:24:33.632Z,21.43
2019-02-17T09:27:06.910Z,23.13
2019-02-17T09:29:40.204Z,24.83
2019-02-17T09:32:16.213Z,26.13
2019-02-17T09:34:48.529Z,22.40
2019-02-17T09:37:21.901Z,24.10
2019-02-17T09:39:55.202Z,23.20
2019-02-17T09:42:28.540Z,20.47
2019-02-17T09:45:01.953Z,21.63
2019-02-17T09:47:35.260Z,21.47
2019-02-17T09:50:13.108Z,20.03
2019-02-17T09:52:46.394Z,23.57
2019-02-17T09:55:20.576Z,20.70
2019-02-17T09:57:53.910Z,20.93
2019-02-17T10:00:27.223Z,24.07
2019-02-17T10:03:00.523Z,23.90
2019-02-17T10:05:33.857Z,22.40
2019-02-17T10:08:07.154Z,18.13
2019-02-17T10:10:40.466Z,21.60
2019-02-17T10:13:13.750Z,20.77
2019-02-17T10:15:47.119Z,19.97
2019-02-17T10:18:20.392Z,20.13
2019-02-17T10:20:53.722Z,19.53
2019-02-17T10:23:27.011Z,20.77
2019-02-17T10:26:00.328Z,19.90
2019-02-17T10:28:42.066Z,18.20
2019-02-17T10:31:08.734Z,19.40
2019-02-17T10:33:42.005Z,19.77
2019-02-17T10:36:15.311Z,21.57
2019-02-17T10:38:48.605Z,19.87
2019-02-17T10:41:21.917Z,20.13
2019-02-17T10:43:55.207Z,20.50
2019-02-17T10:46:28.516Z,21.67
2019-02-17T10:49:01.824Z,19.20
2019-02-17T10:51:35.109Z,21.33
2019-02-17T10:54:08.409Z,18.17
2019-02-17T10:56:43.324Z,18.87
2019-02-17T10:59:16.625Z,19.23
2019-02-17T11:01:49.991Z,17.47
2019-02-17T11:04:23.312Z,20.77
2019-02-17T11:06:56.592Z,19.70
2019-02-17T11:09:29.895Z,19.57
2019-02-17T11:12:03.210Z,22.17
2019-02-17T11:14:36.524Z,20.37
2019-02-17T11:17:09.831Z,21.10
2019-02-17T11:19:43.120Z,20.47
2019-02-17T11:22:22.946Z,19.07
2019-02-17T11:24:52.988Z,18.73
2019-02-17T11:27:26.274Z,20.83
2019-02-17T11:29:59.585Z,21.10
2019-02-17T11:32:32.889Z,18.33
2019-02-17T11:35:06.920Z,17.43
2019-02-17T11:37:40.207Z,16.50
2019-02-17T11:40:13.891Z,19.47
2019-02-17T11:42:47.167Z,19.60
2019-02-17T11:45:21.032Z,17.63
2019-02-17T11:47:54.563Z,19.43
2019-02-17T11:50:28.968Z,18.98
2019-02-17T11:53:02.252Z,19.10
2019-02-17T11:55:35.404Z,18.05
2019-02-17T11:58:08.706Z,16.00
2019-02-17T12:00:41.823Z,18.70
2019-02-17T12:03:15.126Z,18.70
2019-02-17T12:05:48.415Z,17.92
2019-02-17T12:08:21.708Z,17.73
2019-02-17T12:10:55.047Z,16.45
2019-02-17T12:13:28.359Z,17.92
2019-02-17T12:16:01.691Z,17.65
2019-02-17T12:18:34.986Z,17.10
2019-02-17T12:21:12.679Z,17.10
2019-02-17T12:24:03.485Z,18.87
2019-02-17T12:26:44.251Z,18.73
2019-02-17T12:29:19.169Z,16.35
2019-02-17T12:31:52.469Z,19.57
2019-02-17T12:34:25.828Z,16.00
2019-02-17T12:36:59.142Z,18.42
2019-02-17T12:39:32.420Z,19.48
2019-02-17T12:42:05.725Z,18.80
2019-02-17T12:44:39.112Z,17.98
2019-02-17T12:47:12.395Z,16.85
2019-02-17T12:49:45.676Z,17.67
2019-02-17T12:52:18.996Z,17.30
2019-02-17T12:54:52.280Z,18.15
2019-02-17T12:57:25.588Z,18.80
2019-02-17T12:59:58.871Z,18.35
2019-02-17T13:02:32.169Z,17.52
2019-02-17T13:05:07.627Z,18.35
2019-02-17T13:07:42.695Z,17.32
2019-02-17T13:10:15.990Z,16.65
2019-02-17T13:12:49.314Z,20.35
2019-02-17T13:15:22.590Z,18.52
2019-02-17T13:17:55.948Z,16.85
2019-02-17T13:20:29.187Z,17.15
2019-02-17T13:23:02.532Z,15.32
2019-02-17T13:25:38.082Z,16.50
2019-02-17T13:28:10.855Z,13.48
2019-02-17T13:30:44.134Z,14.13
2019-02-17T13:33:17.820Z,16.77
2019-02-17T13:35:51.135Z,14.35
2019-02-17T13:38:24.486Z,14.10
2019-02-17T13:40:57.783Z,14.80
2019-02-17T13:43:31.094Z,13.88
2019-02-17T13:46:04.407Z,14.55
2019-02-17T13:48:37.716Z,12.18
2019-02-17T13:51:11.027Z,15.05
2019-02-17T13:53:44.343Z,12.90
2019-02-17T13:56:17.634Z,14.28
2019-02-17T13:58:50.943Z,13.10
2019-02-17T14:01:24.245Z,14.03
2019-02-17T14:03:57.541Z,12.15
2019-02-17T14:06:30.825Z,12.18
2019-02-17T14:09:04.875Z,12.88
2019-02-17T14:11:38.181Z,11.83
2019-02-17T14:14:11.506Z,11.63
2019-02-17T14:16:44.788Z,10.45
2019-02-17T14:19:18.087Z,11.08
2019-02-17T14:21:51.389Z,12.30
2019-02-17T14:24:24.729Z,10.90
2019-02-17T14:26:58.013Z,11.22
2019-02-17T14:29:31.336Z,12.63
2019-02-17T14:32:06.265Z,12.98
2019-02-17T14:34:39.602Z,13.68
2019-02-17T14:37:13.366Z,11.25
2019-02-17T14:39:46.777Z,13.90
2019-02-17T14:42:20.148Z,12.40
2019-02-17T14:44:55.089Z,12.53
2019-02-17T14:47:28.402Z,13.53
2019-02-17T14:50:01.722Z,12.28
2019-02-17T14:52:35.098Z,13.72
2019-02-17T14:55:12.498Z,14.95
2019-02-17T14:57:45.793Z,13.22
2019-02-17T15:00:19.088Z,13.50
2019-02-17T15:02:52.383Z,12.80
2019-02-17T15:05:25.668Z,14.18
2019-02-17T15:07:58.971Z,12.47
2019-02-17T15:10:32.264Z,14.85
2019-02-17T15:13:05.618Z,12.65
2019-02-17T15:15:38.913Z,13.88
2019-02-17T15:18:12.257Z,18.45
2019-02-17T15:20:45.529Z,12.37
2019-02-17T15:23:18.863Z,10.93
2019-02-17T15:25:52.127Z,12.30
2019-02-17T15:28:25.504Z,14.35
2019-02-17T15:30:58.820Z,12.93
2019-02-17T15:33:33.122Z,13.23
2019-02-17T15:36:06.407Z,14.43
2019-02-17T15:38:39.722Z,14.83
2019-02-17T15:41:13.080Z,13.13
2019-02-17T15:43:48.031Z,12.70
2019-02-17T15:46:21.279Z,14.07
2019-02-17T15:48:54.596Z,15.63
2019-02-17T15:51:27.894Z,14.90
2019-02-17T15:54:01.201Z,14.47
2019-02-17T15:56:34.496Z,16.87
2019-02-17T15:59:07.787Z,16.73
2019-02-17T16:01:41.079Z,13.40
2019-02-17T16:04:14.387Z,13.40
2019-02-17T16:06:47.673Z,13.40
2019-02-17T16:09:20.985Z,14.33
2019-02-17T16:11:54.286Z,14.53
2019-02-17T16:14:27.623Z,14.43
2019-02-17T16:17:00.902Z,14.93
2019-02-17T16:19:34.224Z,13.00
2019-02-17T16:22:07.528Z,12.87
2019-02-17T16:24:40.821Z,16.70
2019-02-17T16:27:14.791Z,14.20
2019-02-17T16:29:48.113Z,14.43
2019-02-17T16:32:21.848Z,14.57
2019-02-17T16:34:55.136Z,17.00
2019-02-17T16:37:28.442Z,17.63
2019-02-17T16:40:01.760Z,15.83
2019-02-17T16:42:35.051Z,15.37
2019-02-17T16:45:10.809Z,15.83
2019-02-17T16:47:47.216Z,13.67
2019-02-17T16:50:31.043Z,13.90
2019-02-17T16:53:07.300Z,18.47
2019-02-17T16:55:41.150Z,19.03
2019-02-17T16:58:14.420Z,16.17
2019-02-17T17:00:48.017Z,15.10
2019-02-17T17:03:21.300Z,13.83
2019-02-17T17:05:54.625Z,15.90
2019-02-17T17:08:27.895Z,16.70
2019-02-17T17:11:04.349Z,15.40
2019-02-17T17:13:37.633Z,17.70
2019-02-17T17:16:10.973Z,15.63
2019-02-17T17:18:44.251Z,19.83
2019-02-17T17:21:17.545Z,16.17
2019-02-17T17:23:50.828Z,17.37
2019-02-17T17:26:24.130Z,15.17
2019-02-17T17:28:57.394Z,13.77
2019-02-17T17:31:30.707Z,16.90
2019-02-17T17:34:03.992Z,13.83
2019-02-17T17:36:37.345Z,16.60
2019-02-17T17:39:10.612Z,24.70
2019-02-17T17:41:43.922Z,37.80
2019-02-17T17:44:17.240Z,18.97
2019-02-17T17:46:50.599Z,20.13
2019-02-17T17:49:23.844Z,16.77
2019-02-17T17:51:57.150Z,16.53
2019-02-17T17:54:30.435Z,23.00
2019-02-17T17:57:03.924Z,18.97
2019-02-17T17:59:37.239Z,19.07
2019-02-17T18:02:10.565Z,18.40
2019-02-17T18:04:45.422Z,15.97
2019-02-17T18:07:18.732Z,11.23
2019-02-17T18:09:52.073Z,14.27
2019-02-17T18:12:25.346Z,15.60
2019-02-17T18:14:58.655Z,16.27
2019-02-17T18:17:31.953Z,13.67
2019-02-17T18:20:09.297Z,11.83
2019-02-17T18:22:42.702Z,13.30
2019-02-17T18:25:16.076Z,20.57
2019-02-17T18:27:49.372Z,19.17
2019-02-17T18:30:22.658Z,16.90
2019-02-17T18:32:55.990Z,18.63
2019-02-17T18:35:29.298Z,18.47
2019-02-17T18:38:02.594Z,20.07
2019-02-17T18:40:44.734Z,19.37
2019-02-17T18:43:11.025Z,15.80
2019-02-17T18:45:44.296Z,15.77
2019-02-17T18:48:17.671Z,19.43
2019-02-17T18:50:58.920Z,21.00
2019-02-17T18:53:26.002Z,21.77
2019-02-17T18:55:59.307Z,20.17
2019-02-17T18:58:32.590Z,19.83
2019-02-17T19:01:05.990Z,22.77
2019-02-17T19:03:39.274Z,25.20
2019-02-17T19:06:12.649Z,26.10
2019-02-17T19:08:45.920Z,25.70
2019-02-17T19:11:19.279Z,26.03
2019-02-17T19:13:52.574Z,25.50
2019-02-17T19:16:25.952Z,22.80
2019-02-17T19:18:59.239Z,25.13
2019-02-17T19:21:32.565Z,20.73
2019-02-17T19:24:05.875Z,20.67
2019-02-17T19:26:40.350Z,22.33
2019-02-17T19:29:13.714Z,25.60
2019-02-17T19:31:47.015Z,27.00
2019-02-17T19:34:20.302Z,19.53
2019-02-17T19:36:53.694Z,20.63
2019-02-17T19:39:26.996Z,25.17
2019-02-17T19:42:00.296Z,17.93
2019-02-17T19:44:33.595Z,19.00
2019-02-17T19:47:06.966Z,23.13
2019-02-17T19:49:40.258Z,18.00
2019-02-17T19:52:13.560Z,19.37
2019-02-17T19:54:47.446Z,22.57
2019-02-17T19:57:21.424Z,20.87
2019-02-17T19:59:54.759Z,16.53
2019-02-17T20:02:29.738Z,19.90
2019-02-17T20:05:08.035Z,17.60
2019-02-17T20:07:41.336Z,18.77
2019-02-17T20:10:14.715Z,16.63
2019-02-17T20:12:47.984Z,18.17
2019-02-17T20:15:23.149Z,21.47
2019-02-17T20:17:56.493Z,20.20
2019-02-17T20:20:29.774Z,18.87
2019-02-17T20:23:04.496Z,19.40
2019-02-17T20:25:37.801Z,33.43
2019-02-17T20:28:11.673Z,21.73
2019-02-17T20:30:44.981Z,27.83
2019-02-17T20:33:18.291Z,18.97
2019-02-17T20:36:02.103Z,20.40
2019-02-17T20:38:26.678Z,17.23
2019-02-17T20:41:00.228Z,22.57
2019-02-17T20:43:33.639Z,24.60
2019-02-17T20:46:06.934Z,20.57
2019-02-17T20:48:40.347Z,23.80
2019-02-17T20:51:13.640Z,22.87
2019-02-17T20:53:47.552Z,22.23
2019-02-17T20:56:20.798Z,24.50
2019-02-17T20:58:54.107Z,31.70
2019-02-17T21:01:27.534Z,24.70
2019-02-17T21:04:00.840Z,26.20
2019-02-17T21:06:34.130Z,26.87
2019-02-17T21:09:07.432Z,25.07
2019-02-17T21:11:40.730Z,22.47
2019-02-17T21:14:14.041Z,20.97
2019-02-17T21:16:47.327Z,29.67
2019-02-17T21:19:20.653Z,31.00
2019-02-17T21:21:54.008Z,27.83
2019-02-17T21:24:28.399Z,29.53
2019-02-17T21:27:03.322Z,18.00
2019-02-17T21:29:38.254Z,18.07
2019-02-17T21:32:11.531Z,14.73
2019-02-17T21:34:44.843Z,15.30
2019-02-17T21:37:18.125Z,13.33
2019-02-17T21:39:51.414Z,11.97
2019-02-17T21:42:24.761Z,13.23
2019-02-17T21:44:58.078Z,15.30
2019-02-17T21:47:31.353Z,15.53
2019-02-17T21:50:13.377Z,18.90
2019-02-17T21:52:46.655Z,34.93
2019-02-17T21:55:20.017Z,34.37
2019-02-17T21:57:53.599Z,40.73
2019-02-17T22:00:26.940Z,31.07
2019-02-17T22:03:00.227Z,31.03
2019-02-17T22:05:35.191Z,29.60
2019-02-17T22:08:08.440Z,32.53
2019-02-17T22:10:41.759Z,33.60
2019-02-17T22:13:15.047Z,30.43
2019-02-17T22:15:48.336Z,28.67
2019-02-17T22:18:21.616Z,28.83
2019-02-17T22:20:54.949Z,27.53
2019-02-17T22:23:29.769Z,25.33
2019-02-17T22:26:03.082Z,19.70
2019-02-17T22:28:36.353Z,25.13
2019-02-17T22:31:09.694Z,27.17
2019-02-17T22:33:45.804Z,23.77
2019-02-17T22:36:19.123Z,26.13
2019-02-17T22:38:52.396Z,26.83
2019-02-17T22:41:25.843Z,27.10
2019-02-17T22:43:59.128Z,26.97
2019-02-17T22:46:32.424Z,33.57
2019-02-17T22:49:05.730Z,33.70
2019-02-17T22:51:39.015Z,33.27
2019-02-17T22:54:12.296Z,38.77
2019-02-17T22:56:45.587Z,32.57
2019-02-17T22:59:18.874Z,24.40
2019-02-17T23:01:52.185Z,24.23
2019-02-17T23:04:25.473Z,22.37
2019-02-17T23:06:58.848Z,26.90
2019-02-17T23:09:32.130Z,29.10
2019-02-17T23:12:05.576Z,21.63
2019-02-17T23:14:38.893Z,19.53
2019-02-17T23:17:12.169Z,18.40
2019-02-17T23:19:45.481Z,18.90
2019-02-17T23:22:18.784Z,17.63
2019-02-17T23:24:52.151Z,15.33
2019-02-17T23:27:25.437Z,19.90
2019-02-17T23:29:58.732Z,17.77
2019-02-17T23:32:32.027Z,17.67
2019-02-17T23:35:05.668Z,16.00
2019-02-17T23:37:38.943Z,15.30
2019-02-17T23:40:12.424Z,15.73
2019-02-17T23:42:45.708Z,16.00
2019-02-17T23:45:19.055Z,14.40
2019-02-17T23:47:52.334Z,18.80
2019-02-17T23:50:25.761Z,17.20
2019-02-17T23:53:00.423Z,14.80
2019-02-17T23:55:33.729Z,16.70
2019-02-17T23:58:07.022Z,16.03
